Time,TemperatureF,DewpointF,PressureIn,WindDirection,WindDirectionDegrees,WindSpeedMPH,WindSpeedGustMPH,Humidity,HourlyPrecipIn,Conditions,Clouds,dailyrainin,SoftwareType,DateUTC
2013-03-10 00:03:00,30.0,30.0,26.84,NNW,340,23.0,28.0,99,0.00,,,-99.99,,2013-03-10 06:03:00,
2013-03-10 00:08:00,30.0,30.0,26.84,North,357,25.0,30.0,98,0.00,,,-99.99,,2013-03-10 06:08:00,
2013-03-10 00:13:00,30.0,30.0,26.84,NNW,336,23.0,28.0,100,0.00,,,-99.99,,2013-03-10 06:13:00,
2013-03-10 00:18:00,30.0,30.0,26.83,NNW,333,23.0,29.0,99,0.00,,,-99.99,,2013-03-10 06:18:00,
2013-03-10 00:23:00,30.0,30.0,26.84,NNW,334,24.0,30.0,98,0.00,,,-99.99,,2013-03-10 06:23:00,
2013-03-10 00:28:00,30.0,30.0,26.84,NNW,334,27.0,33.0,99,0.00,,,-99.99,,2013-03-10 06:28:00,
2013-03-10 00:33:00,30.0,30.0,26.84,NNW,333,25.0,31.0,99,0.00,,,-99.99,,2013-03-10 06:33:00,
2013-03-10 00:38:00,30.0,30.0,26.84,NNW,331,27.0,33.0,99,0.00,,,-99.99,,2013-03-10 06:38:00,
2013-03-10 00:43:00,30.0,30.0,26.84,NNW,334,26.0,31.0,99,0.00,,,-99.99,,2013-03-10 06:43:00,
2013-03-10 00:48:00,29.0,28.0,26.84,NNW,338,28.0,33.0,98,0.00,,,-99.99,,2013-03-10 06:48:00,
2013-03-10 00:53:00,29.0,28.0,26.84,NNW,330,27.0,31.0,99,0.00,,,-99.99,,2013-03-10 06:53:00,
2013-03-10 00:58:00,29.0,28.0,26.85,NNW,336,26.0,32.0,100,0.00,,,-99.99,,2013-03-10 06:58:00,
2013-03-10 01:03:00,29.0,28.0,26.85,NW,323,25.0,30.0,100,0.00,,,-99.99,,2013-03-10 07:03:00,
2013-03-10 01:08:00,29.0,28.0,26.85,NNW,343,30.0,38.0,100,0.00,,,-99.99,,2013-03-10 07:08:00,
2013-03-10 01:13:00,29.0,28.0,26.86,NNW,334,29.0,36.0,100,0.00,,,-99.99,,2013-03-10 07:13:00,
2013-03-10 01:18:00,29.0,28.0,26.86,NNW,327,29.0,35.0,99,0.00,,,-99.99,,2013-03-10 07:18:00,
2013-03-10 01:23:00,29.0,28.0,26.86,NNW,340,29.0,36.0,100,0.00,,,-99.99,,2013-03-10 07:23:00,
2013-03-10 01:28:00,29.0,28.0,26.86,NNW,336,28.0,35.0,99,0.00,,,-99.99,,2013-03-10 07:28:00,
2013-03-10 01:33:00,29.0,28.0,26.87,NW,324,26.0,32.0,100,0.00,,,-99.99,,2013-03-10 07:33:00,
2013-03-10 01:38:00,29.0,28.0,26.87,NNW,333,25.0,31.0,99,0.00,,,-99.99,,2013-03-10 07:38:00,
2013-03-10 01:43:00,29.0,28.0,26.87,NNW,343,26.0,32.0,100,0.00,,,-99.99,,2013-03-10 07:43:00,
2013-03-10 01:48:00,29.0,28.0,26.88,NNW,336,27.0,32.0,100,0.00,,,-99.99,,2013-03-10 07:48:00,
2013-03-10 01:53:00,29.0,28.0,26.88,NW,324,25.0,28.0,100,0.00,,,-99.99,,2013-03-10 07:53:00,
2013-03-10 01:58:00,28.0,28.0,26.88,NNW,331,29.0,35.0,100,0.00,,,-99.99,,2013-03-10 07:58:00,
2013-03-10 03:03:00,28.0,28.0,26.88,NNW,334,28.0,33.0,100,0.00,,,-99.99,,2013-03-10 08:03:00,
2013-03-10 03:08:00,28.0,28.0,26.88,NNW,344,27.0,33.0,100,0.00,,,-99.99,,2013-03-10 08:08:00,
2013-03-10 03:13:00,28.0,28.0,26.89,NNW,329,26.0,33.0,100,0.00,,,-99.99,,2013-03-10 08:13:00,
2013-03-10 03:18:00,28.0,28.0,26.89,NW,313,27.0,37.0,100,0.00,,,-99.99,,2013-03-10 08:18:00,
2013-03-10 03:23:00,28.0,28.0,26.89,NNW,327,28.0,33.0,100,0.00,,,-99.99,,2013-03-10 08:23:00,
2013-03-10 03:28:00,28.0,28.0,26.90,NNW,333,26.0,31.0,100,0.00,,,-99.99,,2013-03-10 08:28:00,
2013-03-10 03:33:00,27.0,27.0,26.90,North,351,25.0,30.0,100,0.00,,,-99.99,,2013-03-10 08:33:00,
2013-03-10 03:38:00,27.0,27.0,26.90,NNW,347,27.0,32.0,100,0.00,,,-99.99,,2013-03-10 08:38:00,
2013-03-10 03:43:00,27.0,27.0,26.91,NNW,345,25.0,31.0,100,0.00,,,-99.99,,2013-03-10 08:43:00,
2013-03-10 03:48:00,27.0,27.0,26.91,NNW,331,26.0,30.0,100,0.00,,,-99.99,,2013-03-10 08:48:00,
2013-03-10 03:53:00,27.0,27.0,26.91,North,351,25.0,29.0,100,0.00,,,-99.99,,2013-03-10 08:53:00,
2013-03-10 03:58:00,26.0,27.0,26.91,North,353,28.0,34.0,100,0.00,,,-99.99,,2013-03-10 08:58:00,
2013-03-10 04:03:00,26.0,27.0,26.91,NNW,333,28.0,33.0,100,0.00,,,-99.99,,2013-03-10 09:03:00,
2013-03-10 04:08:00,26.0,27.0,26.91,North,350,27.0,31.0,100,0.00,,,-99.99,,2013-03-10 09:08:00,
2013-03-10 04:13:00,26.0,27.0,26.91,NNW,348,25.0,31.0,100,0.00,,,-99.99,,2013-03-10 09:13:00,
2013-03-10 04:18:00,26.0,27.0,26.91,North,350,25.0,30.0,100,0.00,,,-99.99,,2013-03-10 09:18:00,
2013-03-10 04:23:00,26.0,27.0,26.91,NNW,347,26.0,30.0,100,0.00,,,-99.99,,2013-03-10 09:23:00,
2013-03-10 04:28:00,26.0,27.0,26.91,NNW,333,23.0,28.0,100,0.00,,,-99.99,,2013-03-10 09:28:00,
2013-03-10 04:33:00,26.0,27.0,26.91,NW,321,23.0,28.0,100,0.00,,,-99.99,,2013-03-10 09:33:00,
2013-03-10 04:38:00,26.0,27.0,26.91,NW,326,24.0,28.0,100,0.00,,,-99.99,,2013-03-10 09:38:00,
2013-03-10 04:43:00,26.0,27.0,26.91,NNW,337,25.0,30.0,100,0.00,,,-99.99,,2013-03-10 09:43:00,
2013-03-10 04:48:00,26.0,27.0,26.92,North,351,24.0,31.0,100,0.00,,,-99.99,,2013-03-10 09:48:00,
2013-03-10 04:53:00,25.0,25.0,26.91,NNW,331,24.0,29.0,100,0.00,,,-99.99,,2013-03-10 09:53:00,
2013-03-10 04:58:00,25.0,25.0,26.92,NW,321,24.0,29.0,100,0.00,,,-99.99,,2013-03-10 09:58:00,
2013-03-10 05:08:00,25.0,25.0,26.92,NNW,340,23.0,28.0,100,0.00,,,-99.99,,2013-03-10 10:08:00,
2013-03-10 05:13:00,25.0,25.0,26.93,NNW,327,23.0,28.0,100,0.00,,,-99.99,,2013-03-10 10:13:00,
2013-03-10 05:18:00,25.0,25.0,26.93,NW,324,23.0,28.0,100,0.00,,,-99.99,,2013-03-10 10:18:00,
2013-03-10 05:23:00,25.0,25.0,26.93,NW,324,22.0,26.0,100,0.00,,,-99.99,,2013-03-10 10:23:00,
2013-03-10 05:28:00,25.0,25.0,26.93,NNW,327,25.0,29.0,100,0.00,,,-99.99,,2013-03-10 10:28:00,
2013-03-10 05:33:00,25.0,25.0,26.93,NW,323,22.0,27.0,100,0.00,,,-99.99,,2013-03-10 10:33:00,
2013-03-10 05:38:00,25.0,25.0,26.94,NNW,329,25.0,28.0,100,0.00,,,-99.99,,2013-03-10 10:38:00,
2013-03-10 05:43:00,24.0,25.0,26.94,NW,323,24.0,29.0,100,0.00,,,-99.99,,2013-03-10 10:43:00,
2013-03-10 05:48:00,24.0,25.0,26.94,NW,326,25.0,30.0,100,0.00,,,-99.99,,2013-03-10 10:48:00,
2013-03-10 05:53:00,24.0,25.0,26.94,NW,320,22.0,26.0,100,0.00,,,-99.99,,2013-03-10 10:53:00,
2013-03-10 05:58:00,24.0,23.0,26.94,NW,316,25.0,30.0,99,0.00,,,-99.99,,2013-03-10 10:58:00,
2013-03-10 06:03:00,24.0,23.0,26.95,NW,323,25.0,31.0,99,0.00,,,-99.99,,2013-03-10 11:03:00,
2013-03-10 06:08:00,24.0,23.0,26.95,NNW,341,25.0,31.0,99,0.00,,,-99.99,,2013-03-10 11:08:00,
2013-03-10 06:13:00,24.0,23.0,26.95,NNW,333,26.0,32.0,99,0.00,,,-99.99,,2013-03-10 11:13:00,
2013-03-10 06:18:00,24.0,23.0,26.95,NNW,331,25.0,32.0,99,0.00,,,-99.99,,2013-03-10 11:18:00,
2013-03-10 06:23:00,24.0,23.0,26.95,NNW,334,25.0,29.0,99,0.00,,,-99.99,,2013-03-10 11:23:00,
2013-03-10 06:28:00,23.0,23.0,26.95,NNW,337,24.0,31.0,99,0.00,,,-99.99,,2013-03-10 11:28:00,
2013-03-10 06:33:00,23.0,23.0,26.95,NNW,340,24.0,32.0,99,0.00,,,-99.99,,2013-03-10 11:33:00,
2013-03-10 06:38:00,23.0,23.0,26.96,NNW,338,25.0,29.0,99,0.00,,,-99.99,,2013-03-10 11:38:00,
2013-03-10 06:43:00,23.0,23.0,26.96,NNW,334,23.0,27.0,100,0.00,,,-99.99,,2013-03-10 11:43:00,
2013-03-10 06:48:00,23.0,23.0,26.96,NNW,330,23.0,28.0,99,0.00,,,-99.99,,2013-03-10 11:48:00,
2013-03-10 06:53:00,23.0,23.0,26.96,NNW,336,21.0,26.0,99,0.00,,,-99.99,,2013-03-10 11:53:00,
2013-03-10 06:58:00,23.0,23.0,26.96,NNW,334,24.0,28.0,99,0.00,,,-99.99,,2013-03-10 11:58:00,
2013-03-10 07:03:00,23.0,23.0,26.96,NNW,333,24.0,27.0,99,0.00,,,-99.99,,2013-03-10 12:03:00,
2013-03-10 07:08:00,23.0,23.0,26.96,NNW,340,22.0,26.0,99,0.00,,,-99.99,,2013-03-10 12:08:00,
2013-03-10 07:13:00,22.0,21.0,26.96,NNW,337,22.0,25.0,99,0.00,,,-99.99,,2013-03-10 12:13:00,
2013-03-10 07:18:00,22.0,21.0,26.97,NW,323,22.0,27.0,99,0.00,,,-99.99,,2013-03-10 12:18:00,
2013-03-10 07:23:00,22.0,21.0,26.97,NNW,329,22.0,25.0,99,0.00,,,-99.99,,2013-03-10 12:23:00,
2013-03-10 07:28:00,22.0,21.0,26.96,NNW,333,22.0,27.0,99,0.00,,,-99.99,,2013-03-10 12:28:00,
2013-03-10 07:33:00,22.0,21.0,26.96,NNW,327,23.0,27.0,99,0.00,,,-99.99,,2013-03-10 12:33:00,
2013-03-10 07:38:00,22.0,21.0,26.96,NNW,333,24.0,28.0,99,0.00,,,-99.99,,2013-03-10 12:38:00,
2013-03-10 07:43:00,22.0,21.0,26.96,NNW,331,22.0,26.0,99,0.00,,,-99.99,,2013-03-10 12:43:00,
2013-03-10 07:48:00,22.0,21.0,26.97,NW,310,24.0,28.0,99,0.00,,,-99.99,,2013-03-10 12:48:00,
2013-03-10 07:53:00,22.0,21.0,26.97,NNW,341,22.0,25.0,99,0.00,,,-99.99,,2013-03-10 12:53:00,
2013-03-10 07:58:00,22.0,21.0,26.97,NNW,337,22.0,27.0,99,0.00,,,-99.99,,2013-03-10 12:58:00,
2013-03-10 08:03:00,21.0,21.0,26.97,NNW,336,22.0,26.0,99,0.00,,,-99.99,,2013-03-10 13:03:00,
2013-03-10 08:08:00,21.0,21.0,26.97,NNW,341,22.0,26.0,99,0.00,,,-99.99,,2013-03-10 13:08:00,
2013-03-10 08:13:00,21.0,21.0,26.97,NNW,343,22.0,27.0,99,0.00,,,-99.99,,2013-03-10 13:13:00,
2013-03-10 08:18:00,21.0,21.0,26.98,NNW,343,20.0,25.0,98,0.00,,,-99.99,,2013-03-10 13:18:00,
2013-03-10 08:23:00,21.0,21.0,26.98,NNW,347,23.0,27.0,98,0.00,,,-99.99,,2013-03-10 13:23:00,
2013-03-10 08:28:00,21.0,21.0,26.99,NNW,340,21.0,26.0,99,0.00,,,-99.99,,2013-03-10 13:28:00,
2013-03-10 08:33:00,21.0,21.0,26.99,NNW,347,20.0,24.0,99,0.00,,,-99.99,,2013-03-10 13:33:00,
2013-03-10 08:38:00,21.0,21.0,26.99,NW,324,25.0,32.0,99,0.00,,,-99.99,,2013-03-10 13:38:00,
2013-03-10 08:43:00,22.0,21.0,26.98,NNW,340,27.0,33.0,98,0.00,,,-99.99,,2013-03-10 13:43:00,
2013-03-10 08:48:00,22.0,21.0,26.98,NNW,345,28.0,36.0,99,0.00,,,-99.99,,2013-03-10 13:48:00,
2013-03-10 08:53:00,21.0,21.0,26.98,NNW,337,28.0,35.0,99,0.00,,,-99.99,,2013-03-10 13:53:00,
2013-03-10 08:58:00,21.0,21.0,26.98,NNW,338,27.0,33.0,98,0.00,,,-99.99,,2013-03-10 13:58:00,
2013-03-10 09:03:00,21.0,21.0,26.99,North,8,26.0,30.0,98,0.00,,,-99.99,,2013-03-10 14:03:00,
2013-03-10 09:08:00,21.0,21.0,26.99,NNW,337,27.0,31.0,98,0.00,,,-99.99,,2013-03-10 14:08:00,
2013-03-10 09:13:00,22.0,21.0,26.99,NNW,340,27.0,31.0,99,0.00,,,-99.99,,2013-03-10 14:13:00,
2013-03-10 09:18:00,22.0,21.0,26.99,NNW,340,25.0,31.0,98,0.00,,,-99.99,,2013-03-10 14:18:00,
2013-03-10 09:23:00,22.0,21.0,26.99,NNW,343,22.0,29.0,98,0.00,,,-99.99,,2013-03-10 14:23:00,
2013-03-10 09:28:00,22.0,21.0,27.00,NNW,336,21.0,25.0,98,0.00,,,-99.99,,2013-03-10 14:28:00,
2013-03-10 09:33:00,22.0,21.0,27.00,NNW,327,24.0,28.0,98,0.00,,,-99.99,,2013-03-10 14:33:00,
2013-03-10 09:38:00,22.0,21.0,27.00,NNW,341,20.0,24.0,98,0.00,,,-99.99,,2013-03-10 14:38:00,
2013-03-10 09:43:00,22.0,21.0,27.00,NW,326,22.0,26.0,97,0.00,,,-99.99,,2013-03-10 14:43:00,
2013-03-10 09:48:00,22.0,21.0,27.01,NNW,345,25.0,32.0,97,0.00,,,-99.99,,2013-03-10 14:48:00,
2013-03-10 09:53:00,22.0,21.0,27.01,North,354,22.0,27.0,98,0.00,,,-99.99,,2013-03-10 14:53:00,
2013-03-10 09:58:00,22.0,21.0,27.01,North,350,24.0,28.0,97,0.00,,,-99.99,,2013-03-10 14:58:00,
2013-03-10 10:03:00,23.0,23.0,27.01,NNW,336,19.0,24.0,97,0.00,,,-99.99,,2013-03-10 15:03:00,
2013-03-10 10:13:00,22.0,21.0,27.02,NNW,331,26.0,32.0,97,0.00,,,-99.99,,2013-03-10 15:13:00,
2013-03-10 10:18:00,22.0,21.0,27.01,NNW,341,27.0,31.0,98,0.00,,,-99.99,,2013-03-10 15:18:00,
2013-03-10 10:23:00,22.0,21.0,27.02,NNW,345,25.0,30.0,97,0.00,,,-99.99,,2013-03-10 15:23:00,
2013-03-10 10:28:00,22.0,21.0,27.02,North,353,27.0,32.0,97,0.00,,,-99.99,,2013-03-10 15:28:00,
2013-03-10 10:33:00,23.0,23.0,27.02,NNW,343,26.0,33.0,97,0.00,,,-99.99,,2013-03-10 15:33:00,
2013-03-10 10:38:00,23.0,23.0,27.02,NNW,331,28.0,33.0,97,0.00,,,-99.99,,2013-03-10 15:38:00,
2013-03-10 10:43:00,23.0,23.0,27.02,NNW,343,29.0,32.0,97,0.00,,,-99.99,,2013-03-10 15:43:00,
2013-03-10 10:48:00,23.0,23.0,27.03,NNW,340,25.0,30.0,97,0.00,,,-99.99,,2013-03-10 15:48:00,
2013-03-10 10:53:00,23.0,23.0,27.02,NNW,344,24.0,30.0,97,0.00,,,-99.99,,2013-03-10 15:53:00,
2013-03-10 10:58:00,23.0,21.0,27.03,NNW,344,24.0,29.0,96,0.00,,,-99.99,,2013-03-10 15:58:00,
2013-03-10 11:03:00,23.0,23.0,27.03,NNW,345,26.0,32.0,97,0.00,,,-99.99,,2013-03-10 16:03:00,
2013-03-10 11:08:00,23.0,23.0,27.02,NNW,347,24.0,29.0,97,0.00,,,-99.99,,2013-03-10 16:08:00,
2013-03-10 11:13:00,23.0,21.0,27.02,NNW,333,26.0,31.0,96,0.00,,,-99.99,,2013-03-10 16:13:00,
2013-03-10 11:18:00,24.0,23.0,27.02,NNW,347,27.0,34.0,96,0.00,,,-99.99,,2013-03-10 16:18:00,
2013-03-10 11:23:00,24.0,23.0,27.02,NNW,347,27.0,33.0,96,0.00,,,-99.99,,2013-03-10 16:23:00,
2013-03-10 11:28:00,24.0,23.0,27.02,NW,326,28.0,34.0,96,0.00,,,-99.99,,2013-03-10 16:28:00,
2013-03-10 11:33:00,24.0,23.0,27.02,NNW,344,27.0,33.0,96,0.00,,,-99.99,,2013-03-10 16:33:00,
2013-03-10 11:38:00,24.0,23.0,27.02,NNW,336,26.0,31.0,95,0.00,,,-99.99,,2013-03-10 16:38:00,
2013-03-10 11:43:00,24.0,23.0,27.02,NNW,327,25.0,30.0,95,0.00,,,-99.99,,2013-03-10 16:43:00,
2013-03-10 11:48:00,24.0,23.0,27.02,NNW,333,27.0,32.0,95,0.00,,,-99.99,,2013-03-10 16:48:00,
2013-03-10 11:53:00,24.0,23.0,27.03,North,358,27.0,31.0,95,0.00,,,-99.99,,2013-03-10 16:53:00,
2013-03-10 12:03:00,25.0,23.0,27.03,NNW,344,27.0,31.0,94,0.00,,,-99.99,,2013-03-10 17:03:00,
2013-03-10 12:08:00,25.0,23.0,27.03,NNW,344,26.0,30.0,94,0.00,,,-99.99,,2013-03-10 17:08:00,
2013-03-10 12:13:00,25.0,23.0,27.03,NNW,331,24.0,28.0,94,0.00,,,-99.99,,2013-03-10 17:13:00,
2013-03-10 12:18:00,25.0,23.0,27.03,NNW,331,24.0,30.0,94,0.00,,,-99.99,,2013-03-10 17:18:00,
2013-03-10 12:23:00,25.0,23.0,27.03,NNW,337,26.0,30.0,93,0.00,,,-99.99,,2013-03-10 17:23:00,
2013-03-10 12:28:00,25.0,23.0,27.03,North,357,27.0,32.0,93,0.00,,,-99.99,,2013-03-10 17:28:00,
2013-03-10 12:33:00,26.0,25.0,27.03,North,353,26.0,30.0,93,0.00,,,-99.99,,2013-03-10 17:33:00,
2013-03-10 12:38:00,26.0,25.0,27.03,NNW,330,26.0,31.0,92,0.00,,,-99.99,,2013-03-10 17:38:00,
2013-03-10 12:43:00,26.0,25.0,27.03,WNW,298,25.0,30.0,92,0.00,,,-99.99,,2013-03-10 17:43:00,
2013-03-10 12:48:00,26.0,25.0,27.03,NW,326,27.0,30.0,92,0.00,,,-99.99,,2013-03-10 17:48:00,
2013-03-10 12:53:00,26.0,25.0,27.03,NNW,336,26.0,31.0,92,0.00,,,-99.99,,2013-03-10 17:53:00,
2013-03-10 12:58:00,26.0,25.0,27.02,NNW,334,26.0,31.0,92,0.00,,,-99.99,,2013-03-10 17:58:00,
2013-03-10 13:03:00,26.0,23.0,27.02,NNW,344,26.0,32.0,91,0.00,,,-99.99,,2013-03-10 18:03:00,
2013-03-10 13:08:00,26.0,23.0,27.02,NNW,348,26.0,30.0,91,0.00,,,-99.99,,2013-03-10 18:08:00,
2013-03-10 13:13:00,26.0,23.0,27.02,NNW,331,25.0,29.0,90,0.00,,,-99.99,,2013-03-10 18:13:00,
2013-03-10 13:18:00,27.0,25.0,27.02,NW,317,26.0,30.0,91,0.00,,,-99.99,,2013-03-10 18:18:00,
2013-03-10 13:23:00,27.0,25.0,27.02,NW,326,26.0,31.0,91,0.00,,,-99.99,,2013-03-10 18:23:00,
2013-03-10 13:28:00,27.0,25.0,27.02,NNW,341,27.0,35.0,91,0.00,,,-99.99,,2013-03-10 18:28:00,
2013-03-10 13:33:00,27.0,25.0,27.02,NNW,336,24.0,29.0,91,0.00,,,-99.99,,2013-03-10 18:33:00,
2013-03-10 13:38:00,27.0,25.0,27.02,NNW,340,26.0,32.0,90,0.00,,,-99.99,,2013-03-10 18:38:00,
2013-03-10 13:43:00,27.0,25.0,27.02,NNW,338,28.0,32.0,90,0.00,,,-99.99,,2013-03-10 18:43:00,
2013-03-10 13:48:00,27.0,25.0,27.03,NNW,338,27.0,35.0,90,0.00,,,-99.99,,2013-03-10 18:48:00,
2013-03-10 13:53:00,27.0,25.0,27.02,NNW,343,26.0,31.0,89,0.00,,,-99.99,,2013-03-10 18:53:00,
2013-03-10 13:58:00,27.0,25.0,27.02,NNW,347,28.0,33.0,89,0.00,,,-99.99,,2013-03-10 18:58:00,
2013-03-10 14:08:00,28.0,25.0,27.02,NNW,344,27.0,33.0,88,0.00,,,-99.99,,2013-03-10 19:08:00,
2013-03-10 14:13:00,28.0,25.0,27.02,NNW,340,25.0,31.0,89,0.00,,,-99.99,,2013-03-10 19:13:00,
2013-03-10 14:18:00,28.0,25.0,27.02,NNW,331,26.0,32.0,87,0.00,,,-99.99,,2013-03-10 19:18:00,
2013-03-10 14:23:00,28.0,25.0,27.02,NW,319,26.0,30.0,88,0.00,,,-99.99,,2013-03-10 19:23:00,
2013-03-10 14:28:00,28.0,25.0,27.02,NNW,330,27.0,32.0,87,0.00,,,-99.99,,2013-03-10 19:28:00,
2013-03-10 14:33:00,28.0,25.0,27.02,NNW,334,27.0,32.0,88,0.00,,,-99.99,,2013-03-10 19:33:00,
2013-03-10 14:38:00,28.0,25.0,27.02,NW,326,25.0,31.0,87,0.00,,,-99.99,,2013-03-10 19:38:00,
2013-03-10 14:43:00,28.0,23.0,27.01,NNW,334,24.0,33.0,84,0.00,,,-99.99,,2013-03-10 19:43:00,
2013-03-10 14:48:00,28.0,25.0,27.01,NW,321,24.0,29.0,87,0.00,,,-99.99,,2013-03-10 19:48:00,
2013-03-10 14:58:00,28.0,25.0,27.01,North,7,25.0,31.0,86,0.00,,,-99.99,,2013-03-10 19:58:00,
2013-03-10 15:03:00,28.0,25.0,27.01,NNW,333,27.0,33.0,85,0.00,,,-99.99,,2013-03-10 20:03:00,
2013-03-10 15:08:00,28.0,25.0,27.01,NNW,338,26.0,31.0,85,0.00,,,-99.99,,2013-03-10 20:08:00,
2013-03-10 15:13:00,29.0,25.0,27.01,NNW,347,23.0,31.0,86,0.00,,,-99.99,,2013-03-10 20:13:00,
2013-03-10 15:18:00,28.0,23.0,27.01,NNW,329,29.0,34.0,84,0.00,,,-99.99,,2013-03-10 20:18:00,
2013-03-10 15:23:00,28.0,23.0,27.01,NNW,337,26.0,30.0,83,0.00,,,-99.99,,2013-03-10 20:23:00,
2013-03-10 15:28:00,29.0,25.0,27.01,NNW,334,27.0,33.0,83,0.00,,,-99.99,,2013-03-10 20:28:00,
2013-03-10 15:33:00,29.0,25.0,27.01,NNW,334,24.0,28.0,84,0.00,,,-99.99,,2013-03-10 20:33:00,
2013-03-10 15:38:00,29.0,25.0,27.01,NNW,347,24.0,29.0,84,0.00,,,-99.99,,2013-03-10 20:38:00,
2013-03-10 15:43:00,29.0,25.0,27.01,NNW,341,25.0,30.0,83,0.00,,,-99.99,,2013-03-10 20:43:00,
2013-03-10 15:48:00,29.0,25.0,27.01,NNW,333,26.0,32.0,82,0.00,,,-99.99,,2013-03-10 20:48:00,
2013-03-10 15:53:00,29.0,25.0,27.01,NW,323,26.0,33.0,81,0.00,,,-99.99,,2013-03-10 20:53:00,
2013-03-10 15:58:00,29.0,25.0,27.01,NNW,337,26.0,30.0,83,0.00,,,-99.99,,2013-03-10 20:58:00,
2013-03-10 16:03:00,29.0,25.0,27.01,NNW,336,24.0,29.0,82,0.00,,,-99.99,,2013-03-10 21:03:00,
2013-03-10 16:08:00,29.0,23.0,27.01,NNW,347,26.0,31.0,80,0.00,,,-99.99,,2013-03-10 21:08:00,
2013-03-10 16:13:00,29.0,25.0,27.01,NNW,334,25.0,31.0,81,0.00,,,-99.99,,2013-03-10 21:13:00,
2013-03-10 16:18:00,29.0,25.0,27.01,NNW,344,26.0,30.0,81,0.00,,,-99.99,,2013-03-10 21:18:00,
2013-03-10 16:23:00,29.0,25.0,27.01,NNW,329,25.0,29.0,81,0.00,,,-99.99,,2013-03-10 21:23:00,
2013-03-10 16:28:00,29.0,25.0,27.00,NNW,331,27.0,31.0,82,0.00,,,-99.99,,2013-03-10 21:28:00,
2013-03-10 16:38:00,29.0,25.0,27.00,NNW,331,26.0,31.0,81,0.00,,,-99.99,,2013-03-10 21:38:00,
2013-03-10 16:48:00,30.0,25.0,27.00,NNW,348,24.0,30.0,80,0.00,,,-99.99,,2013-03-10 21:48:00,
2013-03-10 16:53:00,29.0,25.0,26.99,North,351,24.0,30.0,81,0.00,,,-99.99,,2013-03-10 21:53:00,
2013-03-10 17:03:00,30.0,25.0,27.00,NNW,331,23.0,28.0,79,0.00,,,-99.99,,2013-03-10 22:03:00,
2013-03-10 17:08:00,30.0,25.0,27.00,NNW,333,22.0,27.0,80,0.00,,,-99.99,,2013-03-10 22:08:00,
2013-03-10 17:13:00,30.0,25.0,27.00,NW,312,23.0,27.0,80,0.00,,,-99.99,,2013-03-10 22:13:00,
2013-03-10 17:23:00,30.0,23.0,26.99,NNW,341,24.0,29.0,77,0.00,,,-99.99,,2013-03-10 22:23:00,
2013-03-10 17:28:00,30.0,25.0,26.99,NNW,343,24.0,28.0,78,0.00,,,-99.99,,2013-03-10 22:28:00,
2013-03-10 17:33:00,30.0,25.0,26.99,NNW,348,23.0,28.0,79,0.00,,,-99.99,,2013-03-10 22:33:00,
2013-03-10 17:38:00,30.0,25.0,27.00,NNW,334,21.0,26.0,79,0.00,,,-99.99,,2013-03-10 22:38:00,
2013-03-10 17:43:00,30.0,25.0,27.00,NNW,341,22.0,27.0,78,0.00,,,-99.99,,2013-03-10 22:43:00,
2013-03-10 17:48:00,30.0,23.0,27.00,NW,324,21.0,24.0,77,0.00,,,-99.99,,2013-03-10 22:48:00,
2013-03-10 17:53:00,30.0,23.0,27.00,NW,321,22.0,25.0,76,0.00,,,-99.99,,2013-03-10 22:53:00,
2013-03-10 17:58:00,30.0,23.0,26.99,NNW,330,21.0,27.0,77,0.00,,,-99.99,,2013-03-10 22:58:00,
2013-03-10 18:03:00,30.0,25.0,26.99,NNW,336,22.0,27.0,79,0.00,,,-99.99,,2013-03-10 23:03:00,
2013-03-10 18:08:00,30.0,23.0,26.99,NW,314,22.0,26.0,77,0.00,,,-99.99,,2013-03-10 23:08:00,
2013-03-10 18:13:00,29.0,23.0,26.99,NW,323,22.0,25.0,77,0.00,,,-99.99,,2013-03-10 23:13:00,
2013-03-10 18:18:00,29.0,23.0,26.99,NNW,336,23.0,26.0,76,0.00,,,-99.99,,2013-03-10 23:18:00,
2013-03-10 18:23:00,29.0,23.0,26.99,NNW,336,24.0,28.0,78,0.00,,,-99.99,,2013-03-10 23:23:00,
2013-03-10 18:28:00,29.0,23.0,26.99,NNW,329,21.0,26.0,77,0.00,,,-99.99,,2013-03-10 23:28:00,
2013-03-10 18:33:00,29.0,23.0,26.99,NNW,341,23.0,27.0,77,0.00,,,-99.99,,2013-03-10 23:33:00,
2013-03-10 18:38:00,29.0,23.0,26.99,NNW,345,19.0,23.0,78,0.00,,,-99.99,,2013-03-10 23:38:00,
2013-03-10 18:48:00,29.0,23.0,26.99,NNW,344,20.0,24.0,77,0.00,,,-99.99,,2013-03-10 23:48:00,
2013-03-10 18:53:00,29.0,23.0,26.99,NNW,347,21.0,24.0,79,0.00,,,-99.99,,2013-03-10 23:53:00,
2013-03-10 18:58:00,29.0,23.0,26.99,NNW,336,20.0,23.0,78,0.00,,,-99.99,,2013-03-10 23:58:00,
2013-03-10 19:03:00,28.0,23.0,26.99,NW,321,19.0,23.0,79,0.00,,,-99.99,,2013-03-11 00:03:00,
2013-03-10 19:13:00,28.0,23.0,26.99,NNW,337,16.0,20.0,81,0.00,,,-99.99,,2013-03-11 00:13:00,
2013-03-10 19:18:00,28.0,23.0,26.99,NW,313,20.0,25.0,80,0.00,,,-99.99,,2013-03-11 00:18:00,
2013-03-10 19:28:00,28.0,23.0,26.99,NNW,344,18.0,25.0,81,0.00,,,-99.99,,2013-03-11 00:28:00,
2013-03-10 19:33:00,27.0,21.0,26.99,NNW,331,17.0,21.0,81,0.00,,,-99.99,,2013-03-11 00:33:00,
2013-03-10 19:38:00,27.0,23.0,26.99,North,360,14.0,17.0,82,0.00,,,-99.99,,2013-03-11 00:38:00,
2013-03-10 19:43:00,27.0,23.0,26.99,NNW,344,14.0,18.0,82,0.00,,,-99.99,,2013-03-11 00:43:00,
2013-03-10 19:48:00,26.0,21.0,26.99,North,350,14.0,16.0,83,0.00,,,-99.99,,2013-03-11 00:48:00,
2013-03-10 19:58:00,26.0,21.0,26.99,NNW,341,15.0,18.0,83,0.00,,,-99.99,,2013-03-11 00:58:00,
2013-03-10 20:03:00,25.0,21.0,26.99,NNW,344,15.0,17.0,84,0.00,,,-99.99,,2013-03-11 01:03:00,
2013-03-10 20:08:00,25.0,21.0,26.99,NNW,347,13.0,16.0,84,0.00,,,-99.99,,2013-03-11 01:08:00,
2013-03-10 20:13:00,25.0,21.0,26.99,NNW,343,12.0,14.0,84,0.00,,,-99.99,,2013-03-11 01:13:00,
2013-03-10 20:23:00,24.0,19.0,26.99,NNW,338,12.0,15.0,85,0.00,,,-99.99,,2013-03-11 01:23:00,
2013-03-10 20:28:00,24.0,19.0,26.99,North,351,11.0,13.0,85,0.00,,,-99.99,,2013-03-11 01:28:00,
2013-03-10 20:38:00,24.0,21.0,26.99,NNW,338,8.0,10.0,86,0.00,,,-99.99,,2013-03-11 01:38:00,
2013-03-10 20:43:00,23.0,19.0,26.99,NNW,344,7.0,7.0,87,0.00,,,-99.99,,2013-03-11 01:43:00,
2013-03-10 20:48:00,23.0,19.0,26.99,NNW,337,6.0,7.0,87,0.00,,,-99.99,,2013-03-11 01:48:00,
2013-03-10 20:53:00,22.0,19.0,26.99,NNW,331,7.0,8.0,88,0.00,,,-99.99,,2013-03-11 01:53:00,
2013-03-10 20:58:00,22.0,19.0,26.99,NNW,331,8.0,9.0,88,0.00,,,-99.99,,2013-03-11 01:58:00,
2013-03-10 21:03:00,22.0,19.0,26.99,NNW,329,8.0,9.0,89,0.00,,,-99.99,,2013-03-11 02:03:00,
2013-03-10 21:08:00,22.0,19.0,27.00,NW,323,8.0,9.0,89,0.00,,,-99.99,,2013-03-11 02:08:00,
2013-03-10 21:18:00,22.0,19.0,26.99,NNW,333,8.0,9.0,90,0.00,,,-99.99,,2013-03-11 02:18:00,
2013-03-10 21:23:00,22.0,19.0,26.99,NNW,329,8.0,8.0,90,0.00,,,-99.99,,2013-03-11 02:23:00,
2013-03-10 21:28:00,22.0,19.0,26.99,NW,320,8.0,8.0,90,0.00,,,-99.99,,2013-03-11 02:28:00,
2013-03-10 21:33:00,22.0,19.0,26.99,NW,313,9.0,9.0,90,0.00,,,-99.99,,2013-03-11 02:33:00,
2013-03-10 21:38:00,22.0,19.0,27.00,NW,314,9.0,10.0,90,0.00,,,-99.99,,2013-03-11 02:38:00,
2013-03-10 21:43:00,21.0,19.0,26.99,NW,312,9.0,10.0,90,0.00,,,-99.99,,2013-03-11 02:43:00,
2013-03-10 21:48:00,21.0,19.0,26.99,NW,326,9.0,10.0,90,0.00,,,-99.99,,2013-03-11 02:48:00,
2013-03-10 21:53:00,21.0,19.0,26.99,NW,319,9.0,10.0,90,0.00,,,-99.99,,2013-03-11 02:53:00,
2013-03-10 21:58:00,21.0,19.0,26.99,NW,323,9.0,10.0,91,0.00,,,-99.99,,2013-03-11 02:58:00,
2013-03-10 22:03:00,21.0,19.0,26.99,NW,312,9.0,9.0,91,0.00,,,-99.99,,2013-03-11 03:03:00,
2013-03-10 22:08:00,21.0,19.0,26.99,NNW,336,8.0,9.0,91,0.00,,,-99.99,,2013-03-11 03:08:00,
2013-03-10 22:13:00,20.0,18.0,26.99,NNW,338,8.0,9.0,91,0.00,,,-99.99,,2013-03-11 03:13:00,
2013-03-10 22:18:00,20.0,18.0,26.99,NW,319,8.0,9.0,91,0.00,,,-99.99,,2013-03-11 03:18:00,
2013-03-10 22:23:00,20.0,18.0,26.99,NW,316,9.0,9.0,92,0.00,,,-99.99,,2013-03-11 03:23:00,
2013-03-10 22:28:00,20.0,18.0,26.99,NW,317,9.0,9.0,92,0.00,,,-99.99,,2013-03-11 03:28:00,
2013-03-10 22:33:00,21.0,19.0,26.99,NW,319,8.0,9.0,92,0.00,,,-99.99,,2013-03-11 03:33:00,
2013-03-10 22:38:00,21.0,19.0,26.99,NW,324,8.0,9.0,92,0.00,,,-99.99,,2013-03-11 03:38:00,
2013-03-10 22:43:00,21.0,19.0,26.99,NW,317,8.0,9.0,92,0.00,,,-99.99,,2013-03-11 03:43:00,
2013-03-10 22:48:00,21.0,19.0,26.99,NW,323,7.0,7.0,92,0.00,,,-99.99,,2013-03-11 03:48:00,
2013-03-10 22:53:00,20.0,18.0,26.98,NW,310,6.0,7.0,92,0.00,,,-99.99,,2013-03-11 03:53:00,
2013-03-10 22:58:00,20.0,18.0,26.99,NW,305,7.0,8.0,92,0.00,,,-99.99,,2013-03-11 03:58:00,
2013-03-10 23:03:00,20.0,18.0,26.99,WNW,296,8.0,9.0,93,0.00,,,-99.99,,2013-03-11 04:03:00,
2013-03-10 23:08:00,20.0,18.0,26.99,WNW,290,8.0,9.0,93,0.00,,,-99.99,,2013-03-11 04:08:00,
2013-03-10 23:13:00,21.0,19.0,26.99,WNW,292,9.0,10.0,93,0.00,,,-99.99,,2013-03-11 04:13:00,
2013-03-10 23:18:00,21.0,19.0,26.99,WNW,298,9.0,10.0,92,0.00,,,-99.99,,2013-03-11 04:18:00,
2013-03-10 23:23:00,21.0,19.0,26.98,NW,307,8.0,9.0,93,0.00,,,-99.99,,2013-03-11 04:23:00,
2013-03-10 23:28:00,21.0,19.0,26.98,WNW,292,8.0,8.0,93,0.00,,,-99.99,,2013-03-11 04:28:00,
2013-03-10 23:33:00,20.0,18.0,26.98,WNW,288,8.0,8.0,93,0.00,,,-99.99,,2013-03-11 04:33:00,
2013-03-10 23:38:00,20.0,18.0,26.98,WNW,299,7.0,8.0,93,0.00,,,-99.99,,2013-03-11 04:38:00,
2013-03-10 23:43:00,20.0,18.0,26.97,NW,306,7.0,8.0,93,0.00,,,-99.99,,2013-03-11 04:43:00,
2013-03-10 23:48:00,20.0,18.0,26.97,WNW,300,8.0,8.0,93,0.00,,,-99.99,,2013-03-11 04:48:00,
2013-03-10 23:53:00,20.0,18.0,26.97,WNW,295,8.0,9.0,93,0.00,,,-99.99,,2013-03-11 04:53:00,
2013-03-10 23:58:00,20.0,18.0,26.97,WNW,299,8.0,9.0,93,0.00,,,-99.99,,2013-03-11 04:58:00,